sensor_id;sensor_type;location;lat;lon;timestamp;pressure;altitude;pressure_sealevel;temperature;humidity
39275;BME280;24980;48.874;2.332;2022-11-20T00:01:52;100957.72;;;25.31;35.42
39275;BME280;24980;48.874;2.332;2022-11-20T00:04:22;100955.59;;;25.32;35.46
39275;BME280;24980;48.874;2.332;2022-11-20T00:06:52;100951.44;;;25.32;35.47
39275;BME280;24980;48.874;2.332;2022-11-20T00:09:22;100950.14;;;25.33;35.48
39275;BME280;24980;48.874;2.332;2022-11-20T00:11:53;100956.55;;;25.30;35.54
39275;BME280;24980;48.874;2.332;2022-11-20T00:14:23;100953.66;;;25.31;35.58
39275;BME280;24980;48.874;2.332;2022-11-20T00:16:54;100955.10;;;25.31;35.67
39275;BME280;24980;48.874;2.332;2022-11-20T00:19:23;100955.23;;;25.33;35.71
39275;BME280;24980;48.874;2.332;2022-11-20T00:21:53;100952.88;;;25.35;35.73
39275;BME280;24980;48.874;2.332;2022-11-20T00:24:23;100955.58;;;25.36;35.75
39275;BME280;24980;48.874;2.332;2022-11-20T00:26:54;100955.08;;;25.39;35.75
39275;BME280;24980;48.874;2.332;2022-11-20T00:29:29;100956.11;;;25.41;35.77
39275;BME280;24980;48.874;2.332;2022-11-20T00:31:55;100956.18;;;25.42;35.77
39275;BME280;24980;48.874;2.332;2022-11-20T00:34:25;100959.84;;;25.45;35.76
39275;BME280;24980;48.874;2.332;2022-11-20T00:36:55;100962.98;;;25.44;35.75
39275;BME280;24980;48.874;2.332;2022-11-20T00:39:26;100965.79;;;25.44;35.75
39275;BME280;24980;48.874;2.332;2022-11-20T00:41:55;100964.53;;;25.43;35.76
39275;BME280;24980;48.874;2.332;2022-11-20T00:44:26;100965.89;;;25.43;35.75
39275;BME280;24980;48.874;2.332;2022-11-20T00:46:56;100965.55;;;25.43;35.74
39275;BME280;24980;48.874;2.332;2022-11-20T00:49:26;100968.48;;;25.49;35.74
39275;BME280;24980;48.874;2.332;2022-11-20T00:51:56;100967.02;;;25.57;35.79
39275;BME280;24980;48.874;2.332;2022-11-20T00:54:26;100967.84;;;25.65;35.87
39275;BME280;24980;48.874;2.332;2022-11-20T00:56:56;100967.23;;;25.72;35.93
39275;BME280;24980;48.874;2.332;2022-11-20T00:59:26;100967.52;;;25.79;35.99
39275;BME280;24980;48.874;2.332;2022-11-20T01:01:57;100963.92;;;25.84;36.05
39275;BME280;24980;48.874;2.332;2022-11-20T01:04:27;100970.10;;;25.88;36.13
39275;BME280;24980;48.874;2.332;2022-11-20T01:06:57;100971.30;;;25.90;36.19
39275;BME280;24980;48.874;2.332;2022-11-20T01:09:27;100969.36;;;25.92;36.26
39275;BME280;24980;48.874;2.332;2022-11-20T01:11:57;100969.52;;;25.96;36.31
39275;BME280;24980;48.874;2.332;2022-11-20T01:14:28;100966.89;;;25.98;36.35
39275;BME280;24980;48.874;2.332;2022-11-20T01:16:58;100968.91;;;26.02;36.39
39275;BME280;24980;48.874;2.332;2022-11-20T01:19:28;100970.36;;;26.05;36.43
39275;BME280;24980;48.874;2.332;2022-11-20T01:21:58;100970.70;;;26.08;36.46
39275;BME280;24980;48.874;2.332;2022-11-20T01:24:28;100973.50;;;26.11;36.49
39275;BME280;24980;48.874;2.332;2022-11-20T01:26:58;100965.92;;;26.12;36.52
39275;BME280;24980;48.874;2.332;2022-11-20T01:29:29;100966.07;;;26.13;36.56
39275;BME280;24980;48.874;2.332;2022-11-20T01:31:59;100955.83;;;26.14;36.57
39275;BME280;24980;48.874;2.332;2022-11-20T01:34:32;100963.10;;;26.15;36.61
39275;BME280;24980;48.874;2.332;2022-11-20T01:37:00;100959.80;;;26.16;36.64
39275;BME280;24980;48.874;2.332;2022-11-20T01:39:33;100956.08;;;26.18;36.65
39275;BME280;24980;48.874;2.332;2022-11-20T01:42:00;100955.03;;;26.20;36.67
39275;BME280;24980;48.874;2.332;2022-11-20T01:44:50;100956.92;;;26.22;36.68
39275;BME280;24980;48.874;2.332;2022-11-20T01:47:04;100950.80;;;26.24;36.70
39275;BME280;24980;48.874;2.332;2022-11-20T01:49:46;100950.89;;;26.24;36.71
39275;BME280;24980;48.874;2.332;2022-11-20T01:52:07;100954.61;;;26.25;36.73
39275;BME280;24980;48.874;2.332;2022-11-20T01:54:36;100950.20;;;26.24;36.75
39275;BME280;24980;48.874;2.332;2022-11-20T01:57:04;100948.84;;;26.24;36.77
39275;BME280;24980;48.874;2.332;2022-11-20T01:59:34;100945.69;;;26.25;36.80
39275;BME280;24980;48.874;2.332;2022-11-20T02:02:05;100946.77;;;26.26;36.81
39275;BME280;24980;48.874;2.332;2022-11-20T02:04:34;100945.16;;;26.28;36.82
39275;BME280;24980;48.874;2.332;2022-11-20T02:07:07;100944.67;;;26.30;36.84
39275;BME280;24980;48.874;2.332;2022-11-20T02:09:37;100942.52;;;26.32;36.86
39275;BME280;24980;48.874;2.332;2022-11-20T02:12:05;100941.34;;;26.33;36.87
39275;BME280;24980;48.874;2.332;2022-11-20T02:14:35;100941.94;;;26.34;36.88
39275;BME280;24980;48.874;2.332;2022-11-20T02:17:05;100939.55;;;26.34;36.91
39275;BME280;24980;48.874;2.332;2022-11-20T02:19:35;100938.86;;;26.34;36.92
39275;BME280;24980;48.874;2.332;2022-11-20T02:22:12;100939.88;;;26.34;36.94
39275;BME280;24980;48.874;2.332;2022-11-20T02:24:36;100936.14;;;26.34;36.96
39275;BME280;24980;48.874;2.332;2022-11-20T02:27:10;100935.97;;;26.37;36.97
39275;BME280;24980;48.874;2.332;2022-11-20T02:29:41;100936.30;;;26.37;36.99
39275;BME280;24980;48.874;2.332;2022-11-20T02:32:19;100936.44;;;26.39;37.00
39275;BME280;24980;48.874;2.332;2022-11-20T02:34:38;100935.20;;;26.40;37.01
39275;BME280;24980;48.874;2.332;2022-11-20T02:37:08;100930.92;;;26.39;37.01
39275;BME280;24980;48.874;2.332;2022-11-20T02:39:40;100925.81;;;26.39;37.05
39275;BME280;24980;48.874;2.332;2022-11-20T02:42:09;100922.50;;;26.39;37.06
39275;BME280;24980;48.874;2.332;2022-11-20T02:44:39;100919.06;;;26.39;37.07
39275;BME280;24980;48.874;2.332;2022-11-20T02:47:09;100916.84;;;26.40;37.08
39275;BME280;24980;48.874;2.332;2022-11-20T02:49:39;100914.17;;;26.41;37.09
39275;BME280;24980;48.874;2.332;2022-11-20T02:52:09;100907.28;;;26.41;37.13
39275;BME280;24980;48.874;2.332;2022-11-20T02:54:39;100905.42;;;26.44;37.15
39275;BME280;24980;48.874;2.332;2022-11-20T02:57:09;100895.11;;;26.45;37.20
39275;BME280;24980;48.874;2.332;2022-11-20T02:59:39;100893.91;;;26.45;37.25
39275;BME280;24980;48.874;2.332;2022-11-20T03:02:09;100894.11;;;26.47;37.25
39275;BME280;24980;48.874;2.332;2022-11-20T03:04:39;100882.98;;;26.46;37.26
39275;BME280;24980;48.874;2.332;2022-11-20T03:07:09;100884.69;;;26.46;37.27
39275;BME280;24980;48.874;2.332;2022-11-20T03:09:39;100875.73;;;26.45;37.27
39275;BME280;24980;48.874;2.332;2022-11-20T03:12:09;100876.87;;;26.46;37.28
39275;BME280;24980;48.874;2.332;2022-11-20T03:14:39;100875.55;;;26.48;37.27
39275;BME280;24980;48.874;2.332;2022-11-20T03:17:09;100868.66;;;26.48;37.28
39275;BME280;24980;48.874;2.332;2022-11-20T03:19:39;100869.46;;;26.49;37.28
39275;BME280;24980;48.874;2.332;2022-11-20T03:22:09;100864.74;;;26.49;37.29
39275;BME280;24980;48.874;2.332;2022-11-20T03:24:39;100861.00;;;26.49;37.29
39275;BME280;24980;48.874;2.332;2022-11-20T03:27:09;100859.41;;;26.48;37.32
39275;BME280;24980;48.874;2.332;2022-11-20T03:29:39;100858.64;;;26.48;37.33
39275;BME280;24980;48.874;2.332;2022-11-20T03:32:09;100856.77;;;26.48;37.35
39275;BME280;24980;48.874;2.332;2022-11-20T03:34:39;100852.42;;;26.48;37.36
39275;BME280;24980;48.874;2.332;2022-11-20T03:37:09;100848.67;;;26.49;37.37
39275;BME280;24980;48.874;2.332;2022-11-20T03:42:10;100853.38;;;26.50;37.41
39275;BME280;24980;48.874;2.332;2022-11-20T03:44:43;100852.94;;;26.51;37.41
39275;BME280;24980;48.874;2.332;2022-11-20T03:47:11;100843.72;;;26.52;37.42
39275;BME280;24980;48.874;2.332;2022-11-20T03:49:41;100846.80;;;26.54;37.42
39275;BME280;24980;48.874;2.332;2022-11-20T03:52:11;100844.19;;;26.53;37.44
39275;BME280;24980;48.874;2.332;2022-11-20T03:54:41;100842.46;;;26.51;37.46
39275;BME280;24980;48.874;2.332;2022-11-20T03:57:11;100843.24;;;26.51;37.48
39275;BME280;24980;48.874;2.332;2022-11-20T03:59:41;100838.71;;;26.52;37.49
39275;BME280;24980;48.874;2.332;2022-11-20T04:02:11;100836.36;;;26.53;37.49
39275;BME280;24980;48.874;2.332;2022-11-20T04:04:41;100831.12;;;26.55;37.48
39275;BME280;24980;48.874;2.332;2022-11-20T04:07:11;100836.84;;;26.56;37.48
39275;BME280;24980;48.874;2.332;2022-11-20T04:09:41;100835.38;;;26.57;37.48
39275;BME280;24980;48.874;2.332;2022-11-20T04:12:11;100833.60;;;26.57;37.50
39275;BME280;24980;48.874;2.332;2022-11-20T04:14:41;100829.20;;;26.56;37.52
39275;BME280;24980;48.874;2.332;2022-11-20T04:17:17;100833.69;;;26.57;37.53
39275;BME280;24980;48.874;2.332;2022-11-20T04:22:13;100827.31;;;26.57;37.55
39275;BME280;24980;48.874;2.332;2022-11-20T04:24:43;100824.75;;;26.57;37.55
39275;BME280;24980;48.874;2.332;2022-11-20T04:27:13;100826.59;;;26.58;37.55
39275;BME280;24980;48.874;2.332;2022-11-20T04:29:43;100821.27;;;26.60;37.55
39275;BME280;24980;48.874;2.332;2022-11-20T04:32:13;100820.83;;;26.60;37.58
39275;BME280;24980;48.874;2.332;2022-11-20T04:34:43;100825.66;;;26.61;37.59
39275;BME280;24980;48.874;2.332;2022-11-20T04:37:14;100828.55;;;26.61;37.63
39275;BME280;24980;48.874;2.332;2022-11-20T04:39:44;100827.29;;;26.60;37.69
39275;BME280;24980;48.874;2.332;2022-11-20T04:42:14;100826.42;;;26.61;37.75
39275;BME280;24980;48.874;2.332;2022-11-20T04:44:44;100828.40;;;26.62;37.79
39275;BME280;24980;48.874;2.332;2022-11-20T04:47:14;100819.97;;;26.63;37.82
39275;BME280;24980;48.874;2.332;2022-11-20T04:49:44;100823.53;;;26.65;37.83
39275;BME280;24980;48.874;2.332;2022-11-20T04:52:14;100821.13;;;26.66;37.83
39275;BME280;24980;48.874;2.332;2022-11-20T04:54:46;100818.83;;;26.66;37.82
39275;BME280;24980;48.874;2.332;2022-11-20T04:57:18;100818.83;;;26.66;37.83
39275;BME280;24980;48.874;2.332;2022-11-20T04:59:45;100818.91;;;26.67;37.82
39275;BME280;24980;48.874;2.332;2022-11-20T05:02:15;100816.11;;;26.66;37.82
39275;BME280;24980;48.874;2.332;2022-11-20T05:04:45;100813.64;;;26.67;37.82
39275;BME280;24980;48.874;2.332;2022-11-20T05:07:15;100809.14;;;26.66;37.81
39275;BME280;24980;48.874;2.332;2022-11-20T05:09:45;100810.30;;;26.67;37.81
39275;BME280;24980;48.874;2.332;2022-11-20T05:12:15;100808.61;;;26.67;37.82
39275;BME280;24980;48.874;2.332;2022-11-20T05:14:45;100809.30;;;26.69;37.81
39275;BME280;24980;48.874;2.332;2022-11-20T05:17:15;100803.66;;;26.70;37.81
39275;BME280;24980;48.874;2.332;2022-11-20T05:19:50;100802.64;;;26.70;37.81
39275;BME280;24980;48.874;2.332;2022-11-20T05:22:16;100800.94;;;26.70;37.82
39275;BME280;24980;48.874;2.332;2022-11-20T05:24:46;100798.73;;;26.70;37.82
39275;BME280;24980;48.874;2.332;2022-11-20T05:27:24;100800.80;;;26.69;37.83
39275;BME280;24980;48.874;2.332;2022-11-20T05:29:47;100797.29;;;26.70;37.83
39275;BME280;24980;48.874;2.332;2022-11-20T05:32:22;100799.22;;;26.71;37.85
39275;BME280;24980;48.874;2.332;2022-11-20T05:34:47;100800.96;;;26.71;37.85
39275;BME280;24980;48.874;2.332;2022-11-20T05:37:17;100799.66;;;26.73;37.87
39275;BME280;24980;48.874;2.332;2022-11-20T05:39:47;100799.47;;;26.76;37.89
39275;BME280;24980;48.874;2.332;2022-11-20T05:42:17;100798.67;;;26.77;37.95
39275;BME280;24980;48.874;2.332;2022-11-20T05:44:47;100797.41;;;26.78;38.00
39275;BME280;24980;48.874;2.332;2022-11-20T05:47:17;100798.42;;;26.79;38.02
39275;BME280;24980;48.874;2.332;2022-11-20T05:49:47;100802.91;;;26.77;38.03
39275;BME280;24980;48.874;2.332;2022-11-20T05:52:17;100800.39;;;26.76;38.04
39275;BME280;24980;48.874;2.332;2022-11-20T05:54:49;100798.52;;;26.76;38.01
39275;BME280;24980;48.874;2.332;2022-11-20T05:57:20;100797.39;;;26.77;38.00
39275;BME280;24980;48.874;2.332;2022-11-20T05:59:49;100800.10;;;26.78;38.00
39275;BME280;24980;48.874;2.332;2022-11-20T06:02:19;100798.91;;;26.78;38.00
39275;BME280;24980;48.874;2.332;2022-11-20T06:04:49;100798.53;;;26.78;37.98
39275;BME280;24980;48.874;2.332;2022-11-20T06:07:19;100788.70;;;26.78;37.96
39275;BME280;24980;48.874;2.332;2022-11-20T06:09:50;100788.62;;;26.77;37.96
39275;BME280;24980;48.874;2.332;2022-11-20T06:12:22;100781.33;;;26.77;37.98
39275;BME280;24980;48.874;2.332;2022-11-20T06:14:51;100778.62;;;26.76;37.99
39275;BME280;24980;48.874;2.332;2022-11-20T06:17:21;100779.89;;;26.77;37.99
39275;BME280;24980;48.874;2.332;2022-11-20T06:19:51;100779.36;;;26.77;37.99
39275;BME280;24980;48.874;2.332;2022-11-20T06:22:21;100781.23;;;26.77;38.00
39275;BME280;24980;48.874;2.332;2022-11-20T06:24:51;100778.59;;;26.77;38.00
39275;BME280;24980;48.874;2.332;2022-11-20T06:27:21;100778.78;;;26.79;37.99
39275;BME280;24980;48.874;2.332;2022-11-20T06:29:51;100769.78;;;26.78;37.99
39275;BME280;24980;48.874;2.332;2022-11-20T06:32:21;100776.05;;;26.77;38.00
39275;BME280;24980;48.874;2.332;2022-11-20T06:34:51;100774.69;;;26.77;38.02
39275;BME280;24980;48.874;2.332;2022-11-20T06:37:21;100772.06;;;26.77;38.04
39275;BME280;24980;48.874;2.332;2022-11-20T06:39:51;100770.55;;;26.76;38.04
39275;BME280;24980;48.874;2.332;2022-11-20T06:42:21;100772.51;;;26.78;38.04
39275;BME280;24980;48.874;2.332;2022-11-20T06:44:51;100774.67;;;26.80;38.04
39275;BME280;24980;48.874;2.332;2022-11-20T06:47:21;100774.38;;;26.81;38.05
39275;BME280;24980;48.874;2.332;2022-11-20T06:49:51;100776.98;;;26.83;38.07
39275;BME280;24980;48.874;2.332;2022-11-20T06:52:21;100777.45;;;26.84;38.08
39275;BME280;24980;48.874;2.332;2022-11-20T06:54:51;100771.78;;;26.85;38.08
39275;BME280;24980;48.874;2.332;2022-11-20T06:57:22;100770.42;;;26.85;38.10
39275;BME280;24980;48.874;2.332;2022-11-20T06:59:52;100773.23;;;26.85;38.11
39275;BME280;24980;48.874;2.332;2022-11-20T07:02:22;100779.17;;;26.86;38.11
39275;BME280;24980;48.874;2.332;2022-11-20T07:04:55;100782.23;;;26.88;38.12
39275;BME280;24980;48.874;2.332;2022-11-20T07:07:28;100788.82;;;26.90;38.12
39275;BME280;24980;48.874;2.332;2022-11-20T07:09:53;100783.78;;;26.90;38.13
39275;BME280;24980;48.874;2.332;2022-11-20T07:12:23;100789.61;;;26.91;38.13
39275;BME280;24980;48.874;2.332;2022-11-20T07:14:53;100794.16;;;26.90;38.16
39275;BME280;24980;48.874;2.332;2022-11-20T07:17:23;100791.12;;;26.92;38.17
39275;BME280;24980;48.874;2.332;2022-11-20T07:19:53;100786.61;;;26.92;38.18
39275;BME280;24980;48.874;2.332;2022-11-20T07:22:23;100788.28;;;26.93;38.18
39275;BME280;24980;48.874;2.332;2022-11-20T07:24:53;100789.88;;;26.94;38.18
39275;BME280;24980;48.874;2.332;2022-11-20T07:27:23;100793.80;;;26.95;38.17
39275;BME280;24980;48.874;2.332;2022-11-20T07:29:53;100788.25;;;26.96;38.17
39275;BME280;24980;48.874;2.332;2022-11-20T07:32:23;100787.40;;;26.96;38.17
39275;BME280;24980;48.874;2.332;2022-11-20T07:34:54;100788.66;;;26.97;38.19
39275;BME280;24980;48.874;2.332;2022-11-20T07:37:24;100795.58;;;26.98;38.19
39275;BME280;24980;48.874;2.332;2022-11-20T07:39:54;100796.59;;;26.98;38.20
39275;BME280;24980;48.874;2.332;2022-11-20T07:42:27;100803.98;;;26.99;38.21
39275;BME280;24980;48.874;2.332;2022-11-20T07:44:56;100793.09;;;26.99;38.22
39275;BME280;24980;48.874;2.332;2022-11-20T07:47:28;100791.98;;;26.99;38.22
39275;BME280;24980;48.874;2.332;2022-11-20T07:50:00;100797.27;;;27.00;38.22
39275;BME280;24980;48.874;2.332;2022-11-20T07:52:26;100794.00;;;27.02;38.20
39275;BME280;24980;48.874;2.332;2022-11-20T07:54:58;100791.95;;;27.03;38.21
39275;BME280;24980;48.874;2.332;2022-11-20T07:57:27;100793.71;;;27.03;38.20
39275;BME280;24980;48.874;2.332;2022-11-20T07:59:58;100793.56;;;27.04;38.23
39275;BME280;24980;48.874;2.332;2022-11-20T08:02:28;100791.50;;;27.03;38.24
39275;BME280;24980;48.874;2.332;2022-11-20T08:04:58;100794.51;;;27.04;38.24
39275;BME280;24980;48.874;2.332;2022-11-20T08:07:28;100784.62;;;27.05;38.24
39275;BME280;24980;48.874;2.332;2022-11-20T08:10:01;100784.09;;;27.06;38.24
39275;BME280;24980;48.874;2.332;2022-11-20T08:12:29;100785.64;;;27.07;38.24
39275;BME280;24980;48.874;2.332;2022-11-20T08:14:59;100786.12;;;27.08;38.25
39275;BME280;24980;48.874;2.332;2022-11-20T08:17:29;100794.62;;;27.08;38.27
39275;BME280;24980;48.874;2.332;2022-11-20T08:19:59;100791.01;;;27.10;38.31
39275;BME280;24980;48.874;2.332;2022-11-20T08:22:29;100790.36;;;27.11;38.37
39275;BME280;24980;48.874;2.332;2022-11-20T08:25:02;100784.03;;;27.10;38.42
39275;BME280;24980;48.874;2.332;2022-11-20T08:27:31;100779.45;;;27.11;38.46
39275;BME280;24980;48.874;2.332;2022-11-20T08:35:01;100769.12;;;27.15;38.38
39275;BME280;24980;48.874;2.332;2022-11-20T08:37:32;100761.96;;;27.15;38.37
39275;BME280;24980;48.874;2.332;2022-11-20T08:40:02;100756.55;;;27.14;38.36
39275;BME280;24980;48.874;2.332;2022-11-20T08:42:32;100756.31;;;27.11;38.38
39275;BME280;24980;48.874;2.332;2022-11-20T08:45:02;100754.85;;;27.10;38.40
39275;BME280;24980;48.874;2.332;2022-11-20T08:47:32;100745.22;;;27.07;38.40
39275;BME280;24980;48.874;2.332;2022-11-20T08:50:02;100746.46;;;27.07;38.39
39275;BME280;24980;48.874;2.332;2022-11-20T08:52:32;100753.70;;;27.08;38.37
39275;BME280;24980;48.874;2.332;2022-11-20T08:55:03;100751.41;;;27.08;38.35
39275;BME280;24980;48.874;2.332;2022-11-20T08:57:37;100742.04;;;27.08;38.35
39275;BME280;24980;48.874;2.332;2022-11-20T09:00:06;100743.56;;;27.09;38.35
39275;BME280;24980;48.874;2.332;2022-11-20T09:02:34;100731.61;;;27.07;38.39
39275;BME280;24980;48.874;2.332;2022-11-20T09:05:05;100740.73;;;27.10;38.41
39275;BME280;24980;48.874;2.332;2022-11-20T09:07:35;100732.07;;;27.11;38.47
39275;BME280;24980;48.874;2.332;2022-11-20T09:12:36;100722.02;;;27.14;38.65
39275;BME280;24980;48.874;2.332;2022-11-20T09:15:06;100722.97;;;27.18;38.67
39275;BME280;24980;48.874;2.332;2022-11-20T09:17:36;100716.39;;;27.23;38.70
39275;BME280;24980;48.874;2.332;2022-11-20T09:20:09;100711.08;;;27.29;38.68
39275;BME280;24980;48.874;2.332;2022-11-20T09:22:39;100706.12;;;27.33;38.70
39275;BME280;24980;48.874;2.332;2022-11-20T09:25:08;100707.92;;;27.33;38.76
39275;BME280;24980;48.874;2.332;2022-11-20T09:27:38;100703.17;;;27.35;38.77
39275;BME280;24980;48.874;2.332;2022-11-20T09:30:09;100706.56;;;27.33;38.83
39275;BME280;24980;48.874;2.332;2022-11-20T09:32:39;100696.23;;;27.34;38.86
39275;BME280;24980;48.874;2.332;2022-11-20T09:35:10;100694.11;;;27.34;38.89
39275;BME280;24980;48.874;2.332;2022-11-20T09:37:40;100694.04;;;27.32;38.94
39275;BME280;24980;48.874;2.332;2022-11-20T09:40:21;100689.67;;;27.30;38.97
39275;BME280;24980;48.874;2.332;2022-11-20T09:43:03;100683.70;;;27.28;39.01
39275;BME280;24980;48.874;2.332;2022-11-20T09:50:24;100683.59;;;27.22;39.07
39275;BME280;24980;48.874;2.332;2022-11-20T09:55:14;100685.55;;;27.22;39.10
39275;BME280;24980;48.874;2.332;2022-11-20T09:57:46;100687.62;;;27.21;39.11
39275;BME280;24980;48.874;2.332;2022-11-20T10:00:14;100685.89;;;27.22;39.11
39275;BME280;24980;48.874;2.332;2022-11-20T10:03:21;100681.58;;;27.23;39.10
39275;BME280;24980;48.874;2.332;2022-11-20T10:05:30;100676.50;;;27.25;39.11
39275;BME280;24980;48.874;2.332;2022-11-20T10:07:54;100677.45;;;27.26;39.11
39275;BME280;24980;48.874;2.332;2022-11-20T10:10:40;100673.36;;;27.27;39.10
39275;BME280;24980;48.874;2.332;2022-11-20T10:13:04;100674.91;;;27.26;39.12
39275;BME280;24980;48.874;2.332;2022-11-20T10:25:20;100647.16;;;27.31;39.12
39275;BME280;24980;48.874;2.332;2022-11-20T10:28:24;100647.98;;;27.34;39.11
39275;BME280;24980;48.874;2.332;2022-11-20T10:30:21;100645.16;;;27.36;39.09
39275;BME280;24980;48.874;2.332;2022-11-20T10:33:21;100635.78;;;27.37;39.10
39275;BME280;24980;48.874;2.332;2022-11-20T10:35:40;100636.03;;;27.37;39.12
39275;BME280;24980;48.874;2.332;2022-11-20T10:37:59;100636.28;;;27.39;39.11
39275;BME280;24980;48.874;2.332;2022-11-20T10:43:09;100627.71;;;27.41;39.13
39275;BME280;24980;48.874;2.332;2022-11-20T10:47:59;100637.48;;;27.44;39.12
39275;BME280;24980;48.874;2.332;2022-11-20T10:50:29;100629.32;;;27.46;39.13
39275;BME280;24980;48.874;2.332;2022-11-20T10:55:50;100620.09;;;27.45;39.15
39275;BME280;24980;48.874;2.332;2022-11-20T10:58:14;100612.56;;;27.43;39.17
39275;BME280;24980;48.874;2.332;2022-11-20T11:00:30;100615.28;;;27.43;39.19
39275;BME280;24980;48.874;2.332;2022-11-20T11:02:58;100619.00;;;27.42;39.20
39275;BME280;24980;48.874;2.332;2022-11-20T11:05:46;100614.87;;;27.43;39.21
39275;BME280;24980;48.874;2.332;2022-11-20T11:07:59;100608.62;;;27.44;39.22
39275;BME280;24980;48.874;2.332;2022-11-20T11:10:59;100598.51;;;27.46;39.23
39275;BME280;24980;48.874;2.332;2022-11-20T11:12:59;100600.47;;;27.45;39.24
39275;BME280;24980;48.874;2.332;2022-11-20T11:15:36;100584.17;;;27.45;39.24
39275;BME280;24980;48.874;2.332;2022-11-20T11:17:59;100584.83;;;27.43;39.27
39275;BME280;24980;48.874;2.332;2022-11-20T11:20:29;100584.22;;;27.42;39.27
39275;BME280;24980;48.874;2.332;2022-11-20T11:23:04;100578.09;;;27.42;39.28
39275;BME280;24980;48.874;2.332;2022-11-20T11:25:34;100571.03;;;27.42;39.28
39275;BME280;24980;48.874;2.332;2022-11-20T11:28:04;100571.61;;;27.44;39.27
39275;BME280;24980;48.874;2.332;2022-11-20T11:30:42;100573.59;;;27.43;39.26
39275;BME280;24980;48.874;2.332;2022-11-20T11:33:10;100582.77;;;27.44;39.25
39275;BME280;24980;48.874;2.332;2022-11-20T11:35:32;100580.89;;;27.43;39.25
39275;BME280;24980;48.874;2.332;2022-11-20T11:38:04;100570.62;;;27.40;39.28
39275;BME280;24980;48.874;2.332;2022-11-20T11:40:35;100571.89;;;27.39;39.28
39275;BME280;24980;48.874;2.332;2022-11-20T11:43:07;100568.27;;;27.37;39.28
39275;BME280;24980;48.874;2.332;2022-11-20T11:45:33;100561.73;;;27.37;39.27
39275;BME280;24980;48.874;2.332;2022-11-20T11:48:03;100571.80;;;27.36;39.29
39275;BME280;24980;48.874;2.332;2022-11-20T11:50:35;100561.23;;;27.37;39.26
39275;BME280;24980;48.874;2.332;2022-11-20T11:53:14;100551.54;;;27.36;39.24
39275;BME280;24980;48.874;2.332;2022-11-20T11:55:49;100549.50;;;27.34;39.25
39275;BME280;24980;48.874;2.332;2022-11-20T11:58:28;100550.89;;;27.33;39.25
39275;BME280;24980;48.874;2.332;2022-11-20T12:00:39;100545.20;;;27.33;39.24
39275;BME280;24980;48.874;2.332;2022-11-20T12:03:13;100541.03;;;27.31;39.25
39275;BME280;24980;48.874;2.332;2022-11-20T12:05:45;100538.95;;;27.30;39.25
39275;BME280;24980;48.874;2.332;2022-11-20T12:08:21;100535.87;;;27.30;39.24
39275;BME280;24980;48.874;2.332;2022-11-20T12:10:55;100529.76;;;27.30;39.22
39275;BME280;24980;48.874;2.332;2022-11-20T12:13:32;100529.41;;;27.30;39.21
39275;BME280;24980;48.874;2.332;2022-11-20T12:15:44;100523.44;;;27.30;39.19
39275;BME280;24980;48.874;2.332;2022-11-20T12:18:15;100523.88;;;27.28;39.20
39275;BME280;24980;48.874;2.332;2022-11-20T12:20:47;100520.05;;;27.28;39.19
39275;BME280;24980;48.874;2.332;2022-11-20T12:25:47;100518.30;;;27.27;39.18
39275;BME280;24980;48.874;2.332;2022-11-20T12:28:29;100521.34;;;27.28;39.18
39275;BME280;24980;48.874;2.332;2022-11-20T12:31:15;100525.55;;;27.27;39.18
39275;BME280;24980;48.874;2.332;2022-11-20T12:36:19;100526.46;;;27.26;39.17
39275;BME280;24980;48.874;2.332;2022-11-20T12:41:08;100535.42;;;27.27;39.15
39275;BME280;24980;48.874;2.332;2022-11-20T12:43:23;100535.06;;;27.27;39.13
39275;BME280;24980;48.874;2.332;2022-11-20T12:45:54;100533.01;;;27.26;39.12
39275;BME280;24980;48.874;2.332;2022-11-20T13:06:18;100548.54;;;27.18;39.14
39275;BME280;24980;48.874;2.332;2022-11-20T13:08:25;100531.28;;;27.18;39.14
39275;BME280;24980;48.874;2.332;2022-11-20T13:10:59;100509.41;;;27.16;39.14
39275;BME280;24980;48.874;2.332;2022-11-20T13:13:39;100515.22;;;27.15;39.15
39275;BME280;24980;48.874;2.332;2022-11-20T13:16:08;100518.64;;;27.15;39.17
39275;BME280;24980;48.874;2.332;2022-11-20T13:18:21;100503.89;;;27.15;39.17
39275;BME280;24980;48.874;2.332;2022-11-20T13:20:54;100511.13;;;27.15;39.17
39275;BME280;24980;48.874;2.332;2022-11-20T13:23:26;100521.61;;;27.15;39.18
39275;BME280;24980;48.874;2.332;2022-11-20T13:26:13;100529.59;;;27.15;39.18
39275;BME280;24980;48.874;2.332;2022-11-20T13:28:28;100533.16;;;27.15;39.17
39275;BME280;24980;48.874;2.332;2022-11-20T13:30:55;100533.95;;;27.15;39.17
39275;BME280;24980;48.874;2.332;2022-11-20T13:33:29;100536.02;;;27.14;39.16
39275;BME280;24980;48.874;2.332;2022-11-20T13:35:57;100531.02;;;27.12;39.17
39275;BME280;24980;48.874;2.332;2022-11-20T13:38:25;100532.96;;;27.12;39.19
39275;BME280;24980;48.874;2.332;2022-11-20T13:40:59;100526.93;;;27.13;39.19
39275;BME280;24980;48.874;2.332;2022-11-20T13:43:42;100533.52;;;27.17;39.18
39275;BME280;24980;48.874;2.332;2022-11-20T13:45:57;100535.17;;;27.18;39.18
39275;BME280;24980;48.874;2.332;2022-11-20T13:48:30;100539.15;;;27.21;39.15
39275;BME280;24980;48.874;2.332;2022-11-20T13:51:20;100534.80;;;27.21;39.15
39275;BME280;24980;48.874;2.332;2022-11-20T13:54:03;100538.11;;;27.21;39.15
39275;BME280;24980;48.874;2.332;2022-11-20T13:56:11;100532.02;;;27.20;39.12
39275;BME280;24980;48.874;2.332;2022-11-20T13:58:59;100529.09;;;27.19;39.15
39275;BME280;24980;48.874;2.332;2022-11-20T14:01:17;100530.50;;;27.20;39.16
39275;BME280;24980;48.874;2.332;2022-11-20T14:03:33;100525.11;;;27.16;39.19
39275;BME280;24980;48.874;2.332;2022-11-20T14:06:10;100527.12;;;27.17;39.20
39275;BME280;24980;48.874;2.332;2022-11-20T14:08:37;100524.89;;;27.16;39.20